sensor_id;sensor_type;location;lat;lon;timestamp;P1;durP1;ratioP1;P2;durP2;ratioP2
56537;SDS011;42435;53.292;6.000;2023-08-30T00:00:18;18.08;;;14.02;;
56537;SDS011;42435;53.292;6.000;2023-08-30T00:02:46;19.20;;;15.43;;
56537;SDS011;42435;53.292;6.000;2023-08-30T00:05:15;19.45;;;14.68;;
56537;SDS011;42435;53.292;6.000;2023-08-30T00:07:41;17.45;;;12.95;;
56537;SDS011;42435;53.292;6.000;2023-08-30T00:10:07;16.88;;;13.43;;
56537;SDS011;42435;53.292;6.000;2023-08-30T00:12:33;18.70;;;13.80;;
56537;SDS011;42435;53.292;6.000;2023-08-30T00:14:59;16.90;;;13.82;;
56537;SDS011;42435;53.292;6.000;2023-08-30T00:17:24;18.35;;;14.32;;
56537;SDS011;42435;53.292;6.000;2023-08-30T00:19:50;16.70;;;13.77;;
56537;SDS011;42435;53.292;6.000;2023-08-30T00:22:17;16.85;;;13.82;;
56537;SDS011;42435;53.292;6.000;2023-08-30T00:24:43;18.77;;;13.65;;
56537;SDS011;42435;53.292;6.000;2023-08-30T00:27:11;18.55;;;12.75;;
56537;SDS011;42435;53.292;6.000;2023-08-30T00:29:37;16.42;;;12.70;;
56537;SDS011;42435;53.292;6.000;2023-08-30T00:32:03;15.70;;;13.13;;
56537;SDS011;42435;53.292;6.000;2023-08-30T00:34:29;15.07;;;12.93;;
56537;SDS011;42435;53.292;6.000;2023-08-30T00:36:55;13.80;;;10.95;;
56537;SDS011;42435;53.292;6.000;2023-08-30T00:39:20;17.13;;;12.70;;
56537;SDS011;42435;53.292;6.000;2023-08-30T00:41:46;19.02;;;13.85;;
56537;SDS011;42435;53.292;6.000;2023-08-30T00:44:14;16.80;;;11.88;;
56537;SDS011;42435;53.292;6.000;2023-08-30T00:46:40;14.30;;;12.27;;
56537;SDS011;42435;53.292;6.000;2023-08-30T00:49:06;14.90;;;12.77;;
56537;SDS011;42435;53.292;6.000;2023-08-30T00:51:32;17.40;;;12.88;;
56537;SDS011;42435;53.292;6.000;2023-08-30T00:53:59;19.48;;;13.10;;
56537;SDS011;42435;53.292;6.000;2023-08-30T00:56:27;16.23;;;12.25;;
56537;SDS011;42435;53.292;6.000;2023-08-30T00:58:52;16.25;;;12.25;;
56537;SDS011;42435;53.292;6.000;2023-08-30T01:01:19;16.02;;;12.43;;
56537;SDS011;42435;53.292;6.000;2023-08-30T01:03:45;13.23;;;11.43;;
56537;SDS011;42435;53.292;6.000;2023-08-30T01:06:10;12.32;;;10.95;;
56537;SDS011;42435;53.292;6.000;2023-08-30T01:08:36;14.73;;;11.43;;
56537;SDS011;42435;53.292;6.000;2023-08-30T01:11:11;15.90;;;12.40;;
56537;SDS011;42435;53.292;6.000;2023-08-30T01:13:40;16.25;;;12.32;;
56537;SDS011;42435;53.292;6.000;2023-08-30T01:16:13;14.23;;;11.60;;
56537;SDS011;42435;53.292;6.000;2023-08-30T01:18:39;16.83;;;13.70;;
56537;SDS011;42435;53.292;6.000;2023-08-30T01:21:07;18.48;;;13.68;;
56537;SDS011;42435;53.292;6.000;2023-08-30T01:23:47;15.95;;;13.20;;
56537;SDS011;42435;53.292;6.000;2023-08-30T01:29:19;18.73;;;13.48;;
56537;SDS011;42435;53.292;6.000;2023-08-30T01:31:49;19.55;;;14.77;;
56537;SDS011;42435;53.292;6.000;2023-08-30T01:34:15;17.50;;;13.70;;
56537;SDS011;42435;53.292;6.000;2023-08-30T01:36:41;18.27;;;12.82;;
56537;SDS011;42435;53.292;6.000;2023-08-30T01:39:10;17.08;;;13.30;;
56537;SDS011;42435;53.292;6.000;2023-08-30T01:41:36;15.98;;;13.02;;
56537;SDS011;42435;53.292;6.000;2023-08-30T01:44:03;17.95;;;13.27;;
56537;SDS011;42435;53.292;6.000;2023-08-30T01:46:31;17.73;;;13.77;;
56537;SDS011;42435;53.292;6.000;2023-08-30T01:48:59;18.45;;;14.82;;
56537;SDS011;42435;53.292;6.000;2023-08-30T01:51:27;19.95;;;15.02;;
56537;SDS011;42435;53.292;6.000;2023-08-30T01:53:54;17.63;;;14.00;;
56537;SDS011;42435;53.292;6.000;2023-08-30T01:56:20;18.98;;;14.27;;
56537;SDS011;42435;53.292;6.000;2023-08-30T01:58:46;16.45;;;13.50;;
56537;SDS011;42435;53.292;6.000;2023-08-30T02:01:12;19.67;;;14.88;;
56537;SDS011;42435;53.292;6.000;2023-08-30T02:03:38;16.83;;;14.10;;
56537;SDS011;42435;53.292;6.000;2023-08-30T02:06:24;17.30;;;14.45;;
56537;SDS011;42435;53.292;6.000;2023-08-30T02:08:58;17.75;;;13.70;;
56537;SDS011;42435;53.292;6.000;2023-08-30T02:11:32;17.70;;;14.38;;
56537;SDS011;42435;53.292;6.000;2023-08-30T02:14:00;16.13;;;13.38;;
56537;SDS011;42435;53.292;6.000;2023-08-30T02:16:31;18.10;;;13.52;;
56537;SDS011;42435;53.292;6.000;2023-08-30T02:18:57;16.08;;;13.15;;
56537;SDS011;42435;53.292;6.000;2023-08-30T02:21:23;17.23;;;14.15;;
56537;SDS011;42435;53.292;6.000;2023-08-30T02:23:50;18.48;;;14.38;;
56537;SDS011;42435;53.292;6.000;2023-08-30T02:26:17;17.50;;;14.00;;
56537;SDS011;42435;53.292;6.000;2023-08-30T02:28:44;17.77;;;12.95;;
56537;SDS011;42435;53.292;6.000;2023-08-30T02:31:09;16.67;;;13.02;;
56537;SDS011;42435;53.292;6.000;2023-08-30T02:33:35;21.73;;;14.88;;
56537;SDS011;42435;53.292;6.000;2023-08-30T02:36:02;18.63;;;14.20;;
56537;SDS011;42435;53.292;6.000;2023-08-30T02:38:28;17.25;;;13.88;;
56537;SDS011;42435;53.292;6.000;2023-08-30T02:40:54;19.52;;;14.52;;
56537;SDS011;42435;53.292;6.000;2023-08-30T02:43:19;18.48;;;13.75;;
56537;SDS011;42435;53.292;6.000;2023-08-30T02:45:45;21.10;;;14.73;;
56537;SDS011;42435;53.292;6.000;2023-08-30T02:48:10;20.58;;;14.90;;
56537;SDS011;42435;53.292;6.000;2023-08-30T02:50:36;19.50;;;13.65;;
56537;SDS011;42435;53.292;6.000;2023-08-30T02:53:01;16.25;;;13.05;;
56537;SDS011;42435;53.292;6.000;2023-08-30T02:55:28;18.55;;;13.88;;
56537;SDS011;42435;53.292;6.000;2023-08-30T02:57:55;16.85;;;13.25;;
56537;SDS011;42435;53.292;6.000;2023-08-30T03:00:21;18.60;;;13.95;;
56537;SDS011;42435;53.292;6.000;2023-08-30T03:02:49;17.90;;;13.18;;
56537;SDS011;42435;53.292;6.000;2023-08-30T03:05:16;16.65;;;13.40;;
56537;SDS011;42435;53.292;6.000;2023-08-30T03:07:42;18.30;;;12.70;;
56537;SDS011;42435;53.292;6.000;2023-08-30T03:10:08;20.88;;;15.20;;
56537;SDS011;42435;53.292;6.000;2023-08-30T03:12:34;18.13;;;13.50;;
56537;SDS011;42435;53.292;6.000;2023-08-30T03:15:00;17.00;;;13.57;;
56537;SDS011;42435;53.292;6.000;2023-08-30T03:17:25;17.52;;;13.50;;
56537;SDS011;42435;53.292;6.000;2023-08-30T03:19:54;18.50;;;13.10;;
56537;SDS011;42435;53.292;6.000;2023-08-30T03:22:19;17.25;;;13.05;;
56537;SDS011;42435;53.292;6.000;2023-08-30T03:24:45;18.00;;;13.65;;
56537;SDS011;42435;53.292;6.000;2023-08-30T03:27:10;16.23;;;13.13;;
56537;SDS011;42435;53.292;6.000;2023-08-30T03:29:36;18.15;;;13.13;;
56537;SDS011;42435;53.292;6.000;2023-08-30T03:32:02;15.60;;;11.90;;
56537;SDS011;42435;53.292;6.000;2023-08-30T03:34:27;16.95;;;13.30;;
56537;SDS011;42435;53.292;6.000;2023-08-30T03:36:53;18.73;;;13.52;;
56537;SDS011;42435;53.292;6.000;2023-08-30T03:39:21;16.58;;;12.30;;
56537;SDS011;42435;53.292;6.000;2023-08-30T03:41:47;19.73;;;13.57;;
56537;SDS011;42435;53.292;6.000;2023-08-30T03:44:13;16.45;;;12.82;;
56537;SDS011;42435;53.292;6.000;2023-08-30T03:46:38;17.50;;;12.75;;
56537;SDS011;42435;53.292;6.000;2023-08-30T03:49:04;16.38;;;11.90;;
56537;SDS011;42435;53.292;6.000;2023-08-30T03:51:30;16.85;;;13.10;;
56537;SDS011;42435;53.292;6.000;2023-08-30T03:53:55;19.45;;;13.02;;
56537;SDS011;42435;53.292;6.000;2023-08-30T03:56:23;18.23;;;13.35;;
56537;SDS011;42435;53.292;6.000;2023-08-30T03:58:49;18.90;;;12.85;;
56537;SDS011;42435;53.292;6.000;2023-08-30T04:01:15;17.45;;;12.63;;
56537;SDS011;42435;53.292;6.000;2023-08-30T04:03:40;16.77;;;12.73;;
56537;SDS011;42435;53.292;6.000;2023-08-30T04:06:06;16.45;;;12.50;;
56537;SDS011;42435;53.292;6.000;2023-08-30T04:08:32;16.90;;;12.80;;
56537;SDS011;42435;53.292;6.000;2023-08-30T04:10:58;16.92;;;12.55;;
56537;SDS011;42435;53.292;6.000;2023-08-30T04:13:24;17.77;;;13.05;;
56537;SDS011;42435;53.292;6.000;2023-08-30T04:15:49;19.00;;;13.48;;
56537;SDS011;42435;53.292;6.000;2023-08-30T04:18:16;20.05;;;13.80;;
56537;SDS011;42435;53.292;6.000;2023-08-30T04:20:43;21.77;;;14.63;;
56537;SDS011;42435;53.292;6.000;2023-08-30T04:23:10;19.60;;;14.18;;
56537;SDS011;42435;53.292;6.000;2023-08-30T04:25:36;19.63;;;13.32;;
56537;SDS011;42435;53.292;6.000;2023-08-30T04:28:02;20.00;;;14.30;;
56537;SDS011;42435;53.292;6.000;2023-08-30T04:30:28;18.75;;;12.52;;
56537;SDS011;42435;53.292;6.000;2023-08-30T04:32:54;18.60;;;13.48;;
56537;SDS011;42435;53.292;6.000;2023-08-30T04:35:20;20.77;;;14.05;;
56537;SDS011;42435;53.292;6.000;2023-08-30T04:37:45;21.08;;;14.88;;
56537;SDS011;42435;53.292;6.000;2023-08-30T04:40:11;21.20;;;14.27;;
56537;SDS011;42435;53.292;6.000;2023-08-30T04:42:37;20.17;;;14.30;;
56537;SDS011;42435;53.292;6.000;2023-08-30T04:45:05;23.30;;;14.45;;
56537;SDS011;42435;53.292;6.000;2023-08-30T04:47:31;21.80;;;14.15;;
56537;SDS011;42435;53.292;6.000;2023-08-30T04:49:57;20.42;;;14.02;;
56537;SDS011;42435;53.292;6.000;2023-08-30T04:52:23;18.20;;;13.45;;
56537;SDS011;42435;53.292;6.000;2023-08-30T04:54:49;17.83;;;13.18;;
56537;SDS011;42435;53.292;6.000;2023-08-30T04:57:15;19.67;;;14.02;;
56537;SDS011;42435;53.292;6.000;2023-08-30T04:59:42;17.27;;;13.15;;
56537;SDS011;42435;53.292;6.000;2023-08-30T05:02:08;20.67;;;14.50;;
56537;SDS011;42435;53.292;6.000;2023-08-30T05:04:33;20.23;;;13.93;;
56537;SDS011;42435;53.292;6.000;2023-08-30T05:07:01;21.73;;;14.55;;
56537;SDS011;42435;53.292;6.000;2023-08-30T05:09:27;20.25;;;14.38;;
56537;SDS011;42435;53.292;6.000;2023-08-30T05:11:53;19.60;;;13.77;;
56537;SDS011;42435;53.292;6.000;2023-08-30T05:14:19;19.25;;;13.48;;
56537;SDS011;42435;53.292;6.000;2023-08-30T05:16:45;17.55;;;13.63;;
56537;SDS011;42435;53.292;6.000;2023-08-30T05:19:11;20.30;;;13.88;;
56537;SDS011;42435;53.292;6.000;2023-08-30T05:21:36;20.38;;;13.80;;
56537;SDS011;42435;53.292;6.000;2023-08-30T05:24:02;20.20;;;13.10;;
56537;SDS011;42435;53.292;6.000;2023-08-30T05:26:30;20.35;;;13.68;;
56537;SDS011;42435;53.292;6.000;2023-08-30T05:28:56;18.20;;;13.73;;
56537;SDS011;42435;53.292;6.000;2023-08-30T05:31:21;19.00;;;13.88;;
56537;SDS011;42435;53.292;6.000;2023-08-30T05:33:47;20.15;;;13.82;;
56537;SDS011;42435;53.292;6.000;2023-08-30T05:36:12;20.13;;;13.02;;
56537;SDS011;42435;53.292;6.000;2023-08-30T05:38:38;21.27;;;14.57;;
56537;SDS011;42435;53.292;6.000;2023-08-30T05:41:04;19.42;;;14.10;;
56537;SDS011;42435;53.292;6.000;2023-08-30T05:43:29;19.77;;;14.35;;
56537;SDS011;42435;53.292;6.000;2023-08-30T05:45:55;19.20;;;13.82;;
56537;SDS011;42435;53.292;6.000;2023-08-30T05:48:26;22.63;;;14.50;;
56537;SDS011;42435;53.292;6.000;2023-08-30T05:50:51;19.88;;;14.45;;
56537;SDS011;42435;53.292;6.000;2023-08-30T05:53:18;21.65;;;14.60;;
56537;SDS011;42435;53.292;6.000;2023-08-30T05:55:45;24.10;;;13.73;;
56537;SDS011;42435;53.292;6.000;2023-08-30T05:58:11;20.25;;;13.77;;
56537;SDS011;42435;53.292;6.000;2023-08-30T06:00:36;20.70;;;14.60;;
56537;SDS011;42435;53.292;6.000;2023-08-30T06:03:03;21.35;;;14.60;;
56537;SDS011;42435;53.292;6.000;2023-08-30T06:05:28;22.15;;;14.70;;
56537;SDS011;42435;53.292;6.000;2023-08-30T06:07:54;20.73;;;14.10;;
56537;SDS011;42435;53.292;6.000;2023-08-30T06:10:20;20.58;;;14.43;;
56537;SDS011;42435;53.292;6.000;2023-08-30T06:12:45;19.85;;;13.52;;
56537;SDS011;42435;53.292;6.000;2023-08-30T06:15:11;19.83;;;13.50;;
56537;SDS011;42435;53.292;6.000;2023-08-30T06:17:37;20.20;;;13.95;;
56537;SDS011;42435;53.292;6.000;2023-08-30T06:20:02;19.95;;;13.15;;
56537;SDS011;42435;53.292;6.000;2023-08-30T06:22:28;17.70;;;13.50;;
56537;SDS011;42435;53.292;6.000;2023-08-30T06:24:57;20.48;;;13.52;;
56537;SDS011;42435;53.292;6.000;2023-08-30T06:27:23;20.67;;;13.30;;
56537;SDS011;42435;53.292;6.000;2023-08-30T06:29:49;18.55;;;13.10;;
56537;SDS011;42435;53.292;6.000;2023-08-30T06:32:15;19.65;;;12.55;;
56537;SDS011;42435;53.292;6.000;2023-08-30T06:34:41;18.02;;;12.90;;
56537;SDS011;42435;53.292;6.000;2023-08-30T06:37:07;22.67;;;13.98;;
56537;SDS011;42435;53.292;6.000;2023-08-30T06:39:33;19.80;;;13.10;;
56537;SDS011;42435;53.292;6.000;2023-08-30T06:42:00;17.98;;;13.30;;
56537;SDS011;42435;53.292;6.000;2023-08-30T06:44:26;18.80;;;12.68;;
56537;SDS011;42435;53.292;6.000;2023-08-30T06:46:52;17.27;;;13.15;;
56537;SDS011;42435;53.292;6.000;2023-08-30T06:49:19;18.05;;;13.07;;
56537;SDS011;42435;53.292;6.000;2023-08-30T06:51:45;17.08;;;12.52;;
56537;SDS011;42435;53.292;6.000;2023-08-30T06:54:11;17.05;;;12.07;;
56537;SDS011;42435;53.292;6.000;2023-08-30T06:56:36;19.67;;;11.40;;
56537;SDS011;42435;53.292;6.000;2023-08-30T06:59:05;17.63;;;11.88;;
56537;SDS011;42435;53.292;6.000;2023-08-30T07:01:31;17.20;;;12.07;;
56537;SDS011;42435;53.292;6.000;2023-08-30T07:03:56;17.00;;;11.63;;
56537;SDS011;42435;53.292;6.000;2023-08-30T07:06:22;13.20;;;11.18;;
56537;SDS011;42435;53.292;6.000;2023-08-30T07:08:48;13.50;;;9.52;;
56537;SDS011;42435;53.292;6.000;2023-08-30T07:11:15;17.10;;;10.52;;
56537;SDS011;42435;53.292;6.000;2023-08-30T07:13:41;15.68;;;10.10;;
56537;SDS011;42435;53.292;6.000;2023-08-30T07:16:06;14.35;;;9.68;;
56537;SDS011;42435;53.292;6.000;2023-08-30T07:18:32;16.90;;;10.10;;
56537;SDS011;42435;53.292;6.000;2023-08-30T07:21:02;16.00;;;9.60;;
56537;SDS011;42435;53.292;6.000;2023-08-30T07:23:28;13.50;;;9.25;;
56537;SDS011;42435;53.292;6.000;2023-08-30T07:25:54;13.30;;;9.77;;
56537;SDS011;42435;53.292;6.000;2023-08-30T07:28:19;11.70;;;8.90;;
56537;SDS011;42435;53.292;6.000;2023-08-30T07:30:45;13.18;;;8.95;;
56537;SDS011;42435;53.292;6.000;2023-08-30T07:33:10;17.00;;;9.32;;
56537;SDS011;42435;53.292;6.000;2023-08-30T07:35:36;13.80;;;9.20;;
56537;SDS011;42435;53.292;6.000;2023-08-30T07:38:02;12.75;;;9.18;;
56537;SDS011;42435;53.292;6.000;2023-08-30T07:40:27;13.15;;;8.98;;
56537;SDS011;42435;53.292;6.000;2023-08-30T07:42:57;16.27;;;9.65;;
56537;SDS011;42435;53.292;6.000;2023-08-30T07:45:22;13.73;;;9.68;;
56537;SDS011;42435;53.292;6.000;2023-08-30T07:47:48;14.23;;;10.40;;
56537;SDS011;42435;53.292;6.000;2023-08-30T07:50:13;14.52;;;10.02;;
56537;SDS011;42435;53.292;6.000;2023-08-30T07:52:39;13.25;;;9.90;;
56537;SDS011;42435;53.292;6.000;2023-08-30T07:55:04;12.63;;;9.35;;
56537;SDS011;42435;53.292;6.000;2023-08-30T07:57:30;12.35;;;9.25;;
56537;SDS011;42435;53.292;6.000;2023-08-30T07:59:56;14.00;;;9.10;;
56537;SDS011;42435;53.292;6.000;2023-08-30T08:02:21;13.63;;;9.23;;
56537;SDS011;42435;53.292;6.000;2023-08-30T08:04:50;13.50;;;9.55;;
56537;SDS011;42435;53.292;6.000;2023-08-30T08:07:17;14.50;;;10.02;;
56537;SDS011;42435;53.292;6.000;2023-08-30T08:09:42;13.05;;;9.57;;
56537;SDS011;42435;53.292;6.000;2023-08-30T08:12:08;12.63;;;8.63;;
56537;SDS011;42435;53.292;6.000;2023-08-30T08:14:34;12.55;;;9.48;;
56537;SDS011;42435;53.292;6.000;2023-08-30T08:17:00;13.95;;;10.07;;
56537;SDS011;42435;53.292;6.000;2023-08-30T08:19:25;14.90;;;10.18;;
56537;SDS011;42435;53.292;6.000;2023-08-30T08:21:51;13.15;;;9.75;;
56537;SDS011;42435;53.292;6.000;2023-08-30T08:24:18;16.30;;;10.52;;
56537;SDS011;42435;53.292;6.000;2023-08-30T08:26:44;13.75;;;9.88;;
56537;SDS011;42435;53.292;6.000;2023-08-30T08:29:09;16.27;;;11.05;;
56537;SDS011;42435;53.292;6.000;2023-08-30T08:31:35;14.00;;;9.73;;
56537;SDS011;42435;53.292;6.000;2023-08-30T08:34:10;16.58;;;10.20;;
56537;SDS011;42435;53.292;6.000;2023-08-30T08:36:41;15.23;;;10.45;;
56537;SDS011;42435;53.292;6.000;2023-08-30T08:39:07;16.40;;;10.68;;
56537;SDS011;42435;53.292;6.000;2023-08-30T08:41:41;14.88;;;10.05;;
56537;SDS011;42435;53.292;6.000;2023-08-30T08:44:07;15.55;;;10.98;;
56537;SDS011;42435;53.292;6.000;2023-08-30T08:46:35;15.20;;;10.38;;
56537;SDS011;42435;53.292;6.000;2023-08-30T08:49:11;21.27;;;10.35;;
56537;SDS011;42435;53.292;6.000;2023-08-30T08:51:42;14.73;;;10.45;;
56537;SDS011;42435;53.292;6.000;2023-08-30T08:54:08;14.80;;;10.98;;
56537;SDS011;42435;53.292;6.000;2023-08-30T08:56:35;15.20;;;10.23;;
56537;SDS011;42435;53.292;6.000;2023-08-30T08:59:01;13.93;;;10.32;;
56537;SDS011;42435;53.292;6.000;2023-08-30T09:01:30;14.27;;;9.75;;
56537;SDS011;42435;53.292;6.000;2023-08-30T09:03:58;12.60;;;8.95;;
56537;SDS011;42435;53.292;6.000;2023-08-30T09:06:24;13.88;;;8.48;;
56537;SDS011;42435;53.292;6.000;2023-08-30T09:08:50;12.40;;;8.27;;
56537;SDS011;42435;53.292;6.000;2023-08-30T09:11:16;10.18;;;6.75;;
56537;SDS011;42435;53.292;6.000;2023-08-30T09:13:44;9.18;;;6.43;;
56537;SDS011;42435;53.292;6.000;2023-08-30T09:16:13;8.90;;;6.28;;
56537;SDS011;42435;53.292;6.000;2023-08-30T09:18:40;10.20;;;7.70;;
56537;SDS011;42435;53.292;6.000;2023-08-30T09:21:09;10.77;;;7.45;;
56537;SDS011;42435;53.292;6.000;2023-08-30T09:23:36;8.68;;;7.00;;
56537;SDS011;42435;53.292;6.000;2023-08-30T09:26:02;11.20;;;7.00;;
56537;SDS011;42435;53.292;6.000;2023-08-30T09:28:29;9.23;;;7.22;;
56537;SDS011;42435;53.292;6.000;2023-08-30T09:30:57;8.75;;;6.35;;
56537;SDS011;42435;53.292;6.000;2023-08-30T09:33:31;7.18;;;6.18;;
56537;SDS011;42435;53.292;6.000;2023-08-30T09:35:58;7.18;;;5.78;;
56537;SDS011;42435;53.292;6.000;2023-08-30T09:38:26;9.25;;;5.97;;
56537;SDS011;42435;53.292;6.000;2023-08-30T09:40:52;7.20;;;5.43;;
56537;SDS011;42435;53.292;6.000;2023-08-30T09:43:27;8.00;;;6.07;;
56537;SDS011;42435;53.292;6.000;2023-08-30T09:45:53;8.75;;;6.28;;
56537;SDS011;42435;53.292;6.000;2023-08-30T09:48:22;6.80;;;5.15;;
56537;SDS011;42435;53.292;6.000;2023-08-30T09:50:50;6.90;;;5.68;;
56537;SDS011;42435;53.292;6.000;2023-08-30T09:53:21;7.90;;;5.57;;
56537;SDS011;42435;53.292;6.000;2023-08-30T09:55:52;8.43;;;6.32;;
56537;SDS011;42435;53.292;6.000;2023-08-30T09:58:19;8.63;;;6.32;;
56537;SDS011;42435;53.292;6.000;2023-08-30T10:00:46;8.77;;;6.22;;
56537;SDS011;42435;53.292;6.000;2023-08-30T10:03:15;8.35;;;6.82;;
56537;SDS011;42435;53.292;6.000;2023-08-30T10:05:44;9.18;;;6.28;;
56537;SDS011;42435;53.292;6.000;2023-08-30T10:08:10;8.32;;;6.65;;
56537;SDS011;42435;53.292;6.000;2023-08-30T10:10:38;8.75;;;7.22;;
56537;SDS011;42435;53.292;6.000;2023-08-30T10:13:05;11.82;;;8.07;;
56537;SDS011;42435;53.292;6.000;2023-08-30T10:15:32;8.48;;;7.07;;
56537;SDS011;42435;53.292;6.000;2023-08-30T10:18:01;12.02;;;8.98;;
56537;SDS011;42435;53.292;6.000;2023-08-30T10:20:28;9.80;;;7.63;;
56537;SDS011;42435;53.292;6.000;2023-08-30T10:22:54;9.40;;;6.63;;
56537;SDS011;42435;53.292;6.000;2023-08-30T10:25:25;9.50;;;7.22;;
56537;SDS011;42435;53.292;6.000;2023-08-30T10:27:56;9.88;;;7.72;;
56537;SDS011;42435;53.292;6.000;2023-08-30T10:30:22;9.30;;;7.00;;
56537;SDS011;42435;53.292;6.000;2023-08-30T10:32:50;9.95;;;7.28;;
56537;SDS011;42435;53.292;6.000;2023-08-30T10:35:17;8.02;;;6.82;;
56537;SDS011;42435;53.292;6.000;2023-08-30T10:37:53;8.48;;;6.88;;
56537;SDS011;42435;53.292;6.000;2023-08-30T10:40:20;9.15;;;7.13;;
56537;SDS011;42435;53.292;6.000;2023-08-30T10:42:47;8.68;;;6.88;;
56537;SDS011;42435;53.292;6.000;2023-08-30T10:45:28;10.38;;;7.10;;
56537;SDS011;42435;53.292;6.000;2023-08-30T10:47:55;8.55;;;6.75;;
56537;SDS011;42435;53.292;6.000;2023-08-30T10:50:29;8.82;;;6.70;;
56537;SDS011;42435;53.292;6.000;2023-08-30T10:52:56;8.00;;;7.22;;
56537;SDS011;42435;53.292;6.000;2023-08-30T10:55:24;9.05;;;7.30;;
56537;SDS011;42435;53.292;6.000;2023-08-30T10:58:00;9.48;;;7.88;;
56537;SDS011;42435;53.292;6.000;2023-08-30T11:00:31;7.97;;;7.13;;
56537;SDS011;42435;53.292;6.000;2023-08-30T11:02:57;11.40;;;8.18;;
56537;SDS011;42435;53.292;6.000;2023-08-30T11:05:23;8.65;;;7.60;;
56537;SDS011;42435;53.292;6.000;2023-08-30T11:07:50;9.20;;;7.57;;
56537;SDS011;42435;53.292;6.000;2023-08-30T11:10:16;11.10;;;8.07;;
56537;SDS011;42435;53.292;6.000;2023-08-30T11:12:42;8.85;;;7.43;;
56537;SDS011;42435;53.292;6.000;2023-08-30T11:15:09;10.70;;;8.25;;
56537;SDS011;42435;53.292;6.000;2023-08-30T11:17:36;9.02;;;7.13;;
56537;SDS011;42435;53.292;6.000;2023-08-30T11:20:06;9.40;;;8.05;;
56537;SDS011;42435;53.292;6.000;2023-08-30T11:22:37;8.00;;;7.18;;
56537;SDS011;42435;53.292;6.000;2023-08-30T11:25:04;10.48;;;7.75;;
56537;SDS011;42435;53.292;6.000;2023-08-30T11:27:31;9.18;;;8.00;;
56537;SDS011;42435;53.292;6.000;2023-08-30T11:30:00;8.73;;;7.80;;
56537;SDS011;42435;53.292;6.000;2023-08-30T11:32:28;8.57;;;7.68;;
56537;SDS011;42435;53.292;6.000;2023-08-30T11:34:57;8.65;;;7.85;;
56537;SDS011;42435;53.292;6.000;2023-08-30T11:37:26;9.15;;;7.40;;
56537;SDS011;42435;53.292;6.000;2023-08-30T11:39:53;9.77;;;8.20;;
56537;SDS011;42435;53.292;6.000;2023-08-30T11:42:20;8.80;;;7.50;;
56537;SDS011;42435;53.292;6.000;2023-08-30T11:44:46;9.70;;;8.55;;
56537;SDS011;42435;53.292;6.000;2023-08-30T11:47:23;9.02;;;7.47;;
56537;SDS011;42435;53.292;6.000;2023-08-30T11:49:50;10.48;;;8.43;;
56537;SDS011;42435;53.292;6.000;2023-08-30T11:52:18;9.95;;;8.25;;
56537;SDS011;42435;53.292;6.000;2023-08-30T11:54:46;9.48;;;7.90;;
56537;SDS011;42435;53.292;6.000;2023-08-30T11:57:15;9.52;;;8.02;;
56537;SDS011;42435;53.292;6.000;2023-08-30T11:59:41;10.30;;;8.75;;
56537;SDS011;42435;53.292;6.000;2023-08-30T12:02:07;9.98;;;8.43;;
56537;SDS011;42435;53.292;6.000;2023-08-30T12:04:40;11.70;;;8.02;;
56537;SDS011;42435;53.292;6.000;2023-08-30T12:07:07;10.07;;;8.63;;
56537;SDS011;42435;53.292;6.000;2023-08-30T12:09:33;11.75;;;9.30;;
56537;SDS011;42435;53.292;6.000;2023-08-30T12:12:20;10.93;;;8.57;;
56537;SDS011;42435;53.292;6.000;2023-08-30T12:14:54;9.88;;;8.52;;
56537;SDS011;42435;53.292;6.000;2023-08-30T12:17:20;12.80;;;9.70;;
56537;SDS011;42435;53.292;6.000;2023-08-30T12:19:46;10.30;;;9.30;;
56537;SDS011;42435;53.292;6.000;2023-08-30T12:22:19;15.65;;;11.13;;
56537;SDS011;42435;53.292;6.000;2023-08-30T12:24:45;12.13;;;9.95;;
56537;SDS011;42435;53.292;6.000;2023-08-30T12:27:14;11.60;;;9.65;;
56537;SDS011;42435;53.292;6.000;2023-08-30T12:29:40;11.15;;;9.32;;
56537;SDS011;42435;53.292;6.000;2023-08-30T12:32:06;10.50;;;8.70;;
56537;SDS011;42435;53.292;6.000;2023-08-30T12:34:32;11.90;;;9.55;;
56537;SDS011;42435;53.292;6.000;2023-08-30T12:36:59;12.68;;;10.05;;
56537;SDS011;42435;53.292;6.000;2023-08-30T12:39:25;13.95;;;10.88;;
56537;SDS011;42435;53.292;6.000;2023-08-30T12:41:50;13.52;;;11.00;;
56537;SDS011;42435;53.292;6.000;2023-08-30T12:44:16;12.95;;;10.65;;
56537;SDS011;42435;53.292;6.000;2023-08-30T12:46:42;11.38;;;10.00;;
56537;SDS011;42435;53.292;6.000;2023-08-30T12:49:07;13.70;;;11.07;;
56537;SDS011;42435;53.292;6.000;2023-08-30T12:51:33;14.07;;;10.85;;
56537;SDS011;42435;53.292;6.000;2023-08-30T12:53:58;13.50;;;10.93;;
56537;SDS011;42435;53.292;6.000;2023-08-30T12:56:24;13.20;;;11.27;;
56537;SDS011;42435;53.292;6.000;2023-08-30T12:58:49;11.50;;;10.25;;
56537;SDS011;42435;53.292;6.000;2023-08-30T13:01:16;14.82;;;12.15;;
56537;SDS011;42435;53.292;6.000;2023-08-30T13:03:41;11.85;;;10.45;;
56537;SDS011;42435;53.292;6.000;2023-08-30T13:06:07;11.43;;;9.30;;
56537;SDS011;42435;53.292;6.000;2023-08-30T13:08:33;10.05;;;8.73;;
56537;SDS011;42435;53.292;6.000;2023-08-30T13:11:01;10.30;;;9.30;;
56537;SDS011;42435;53.292;6.000;2023-08-30T13:13:27;9.75;;;8.60;;
56537;SDS011;42435;53.292;6.000;2023-08-30T13:15:53;9.82;;;8.82;;
56537;SDS011;42435;53.292;6.000;2023-08-30T13:18:18;10.60;;;8.85;;
56537;SDS011;42435;53.292;6.000;2023-08-30T13:20:44;9.10;;;8.20;;
56537;SDS011;42435;53.292;6.000;2023-08-30T13:23:10;11.95;;;8.70;;
56537;SDS011;42435;53.292;6.000;2023-08-30T13:25:39;6.10;;;5.28;;
56537;SDS011;42435;53.292;6.000;2023-08-30T13:28:05;7.72;;;6.90;;
56537;SDS011;42435;53.292;6.000;2023-08-30T13:30:32;7.45;;;6.47;;
56537;SDS011;42435;53.292;6.000;2023-08-30T13:32:58;7.20;;;6.50;;
56537;SDS011;42435;53.292;6.000;2023-08-30T13:35:24;7.78;;;7.03;;
56537;SDS011;42435;53.292;6.000;2023-08-30T13:37:49;7.72;;;6.18;;
56537;SDS011;42435;53.292;6.000;2023-08-30T13:40:15;7.82;;;6.20;;
56537;SDS011;42435;53.292;6.000;2023-08-30T13:42:41;8.05;;;6.60;;
56537;SDS011;42435;53.292;6.000;2023-08-30T13:45:06;6.50;;;5.88;;
56537;SDS011;42435;53.292;6.000;2023-08-30T13:47:34;7.35;;;6.65;;
56537;SDS011;42435;53.292;6.000;2023-08-30T13:50:00;5.93;;;5.32;;
56537;SDS011;42435;53.292;6.000;2023-08-30T13:52:26;5.90;;;5.30;;
56537;SDS011;42435;53.292;6.000;2023-08-30T13:54:51;5.78;;;5.18;;
56537;SDS011;42435;53.292;6.000;2023-08-30T13:57:17;6.50;;;5.10;;
56537;SDS011;42435;53.292;6.000;2023-08-30T13:59:42;6.45;;;5.20;;
56537;SDS011;42435;53.292;6.000;2023-08-30T14:02:08;6.97;;;5.90;;
56537;SDS011;42435;53.292;6.000;2023-08-30T14:04:33;6.28;;;4.90;;
56537;SDS011;42435;53.292;6.000;2023-08-30T14:07:02;6.32;;;4.90;;
56537;SDS011;42435;53.292;6.000;2023-08-30T14:09:28;5.35;;;4.85;;
56537;SDS011;42435;53.292;6.000;2023-08-30T14:11:54;7.63;;;4.40;;
56537;SDS011;42435;53.292;6.000;2023-08-30T14:14:22;6.20;;;4.25;;
56537;SDS011;42435;53.292;6.000;2023-08-30T14:16:53;6.15;;;4.82;;
56537;SDS011;42435;53.292;6.000;2023-08-30T14:19:18;5.20;;;4.70;;
56537;SDS011;42435;53.292;6.000;2023-08-30T14:21:44;7.78;;;4.90;;
56537;SDS011;42435;53.292;6.000;2023-08-30T14:24:10;8.32;;;4.85;;
56537;SDS011;42435;53.292;6.000;2023-08-30T14:26:36;6.35;;;4.25;;
56537;SDS011;42435;53.292;6.000;2023-08-30T14:29:02;5.47;;;4.30;;
56537;SDS011;42435;53.292;6.000;2023-08-30T14:31:28;8.43;;;5.20;;